This is the latest recevied weather packets stored in our database for station/object DH1NAI-6. If no packets are shown the sender has not sent any weather packets the latest 10 day(s).
| Time | Temp. | Humidity | Pressure | Rain* | Wind** | Luminosity | Snow |
|---|---|---|---|---|---|---|---|
| 1787565767 | 16.67° C | 62% | 1020.3 hPa | 0 mm | - | 142 W/m² | - |
| 1787565152 | 16.11° C | 67% | 1020.1 hPa | 0 mm | - | 160 W/m² | - |
| 1787564535 | 16.11° C | 65% | 1020.2 hPa | 0 mm | - | 160 W/m² | - |
| 1787563927 | 16.67° C | 65% | 1020.1 hPa | 0 mm | - | 168 W/m² | - |
| 1787563319 | 16.11° C | 69% | 1020.2 hPa | 0 mm | - | 175 W/m² | - |
| 1787562695 | 16.11° C | 66% | 1020.2 hPa | 0 mm | - | 165 W/m² | - |
| 1787562087 | 15.56° C | 69% | 1020.4 hPa | 0 mm | - | 151 W/m² | - |
| 1787561479 | 15.56° C | 68% | 1020.3 hPa | 0 mm | - | 158 W/m² | - |
| 1787560872 | 15.56° C | 69% | 1020.5 hPa | 0 mm | - | 141 W/m² | - |
| 1787560263 | 15.56° C | 71% | 1020.4 hPa | 0 mm | - | 155 W/m² | - |
| 1787559663 | 15.56° C | 73% | 1020.5 hPa | 0 mm | - | 133 W/m² | - |
| 1787559047 | 15.56° C | 74% | 1020.5 hPa | 0 mm | - | 128 W/m² | - |
| 1787558432 | 14.44° C | 75% | 1020.4 hPa | 0 mm | - | 110 W/m² | - |
| 1787557831 | 14.44° C | 76% | 1020.4 hPa | 0 mm | - | 105 W/m² | - |
| 1787557223 | 13.89° C | 78% | 1020.5 hPa | 0 mm | - | 96 W/m² | - |
| 1787556599 | 13.33° C | 79% | 1020.4 hPa | 0 mm | - | 88 W/m² | - |
| 1787555991 | 13.33° C | 80% | 1020.6 hPa | 0 mm | - | 81 W/m² | - |
| 1787555383 | 12.78° C | 81% | 1020.5 hPa | 0 mm | - | 73 W/m² | - |
| 1787554775 | 12.78° C | 82% | 1020.3 hPa | 0 mm | - | 34 W/m² | - |
| 1787554167 | 12.22° C | 83% | 1020.3 hPa | 0 mm | - | 29 W/m² | - |
| 1787553560 | 11.67° C | 85% | 1020.4 hPa | 0 mm | - | 15 W/m² | - |
| 1787552951 | 11.67° C | 84% | 1020.3 hPa | 0 mm | - | 21 W/m² | - |
| 1787552344 | 11.11° C | 88% | 1020.3 hPa | 0 mm | - | 22 W/m² | - |
| 1787551735 | 9.44° C | 99% | 1020.6 hPa | 0 mm | - | 11 W/m² | - |
| 1787551128 | 8.33° C | 99% | 1020.4 hPa | 0 mm | - | 10 W/m² | - |
* Rain latest hour (hover to see other rain measurements)
** Current wind speed in m/s (hover to see current wind gust speed)